SKBG/BGA METAR and TAF weather

Enter ICAO airport designator
Station Type Date Time Source
SKBG METAR 2021/01/16 02:00 UTC NOAA

SKBG 160200Z 30003KT 9999 SCT015 SCT240 21/21 Q1014 RMK A2996


Station Type Date Time Source
SKBG Decoded METAR 2021/01/16 02:00 UTC NOAA

Bucaramanga / Palonegro, Colombia (SKBG) 07-06N 073-12W
Jan 15, 2021 - 09:00 PM EST / 2021.01.16 0200 UTC
Wind: from the WNW (300 degrees) at 3 MPH (3 KT):0
Visibility: greater than 7 mile(s):0
Sky conditions: partly cloudy
Temperature: 69 F (21 C)
Dew Point: 69 F (21 C)
Relative Humidity: 100%
Pressure (altimeter): 29.94 in. Hg (1014 hPa)
ob: SKBG 160200Z 30003KT 9999 SCT015 SCT240 21/21 Q1014 RMK A2996
cycle: 2

Station Type Date Time Source
SKBG TAF 2021/01/15 18:57 UTC NOAA

TAF TAF SKBG 151630Z 1518/1618 32008KT 9999 SCT017 SCT070
BECMG 1600/1602 VRB02KT TX28/1519Z TN18/1610Z

Example: see airport list